createdAt,value
2023-03-24T00:01:12.124Z,10.32
2023-03-24T00:03:40.431Z,11.02
2023-03-24T00:06:09.447Z,17.80
2023-03-24T00:08:38.600Z,8.68
2023-03-24T00:11:11.723Z,9.43
2023-03-24T00:13:40.957Z,13.43
2023-03-24T00:16:11.744Z,9.23
2023-03-24T00:18:40.781Z,12.93
2023-03-24T00:21:11.794Z,14.88
2023-03-24T00:23:43.850Z,12.38
2023-03-24T00:26:15.651Z,12.15
2023-03-24T00:28:46.501Z,15.38
2023-03-24T00:31:16.043Z,13.75
2023-03-24T00:33:48.197Z,15.57
2023-03-24T00:36:17.159Z,10.35
2023-03-24T00:38:47.742Z,9.70
2023-03-24T00:41:20.508Z,15.88
2023-03-24T00:43:50.418Z,7.55
2023-03-24T00:46:29.288Z,7.95
2023-03-24T00:49:02.797Z,8.02
2023-03-24T00:51:33.352Z,11.98
2023-03-24T00:54:02.187Z,9.95
2023-03-24T00:56:34.143Z,9.60
2023-03-24T00:59:02.674Z,5.07
2023-03-24T01:01:35.386Z,10.07
2023-03-24T01:04:06.197Z,12.43
2023-03-24T01:06:36.788Z,11.97
2023-03-24T01:09:05.912Z,10.32
2023-03-24T01:11:40.094Z,11.57
2023-03-24T01:14:09.953Z,10.75
2023-03-24T01:16:38.828Z,6.95
2023-03-24T01:19:09.361Z,12.95
2023-03-24T01:21:38.263Z,13.23
2023-03-24T01:24:07.854Z,10.80
2023-03-24T01:26:37.999Z,13.75
2023-03-24T01:29:06.261Z,8.32
2023-03-24T01:31:34.491Z,11.50
2023-03-24T01:34:02.759Z,13.13
2023-03-24T01:36:31.529Z,11.55
2023-03-24T01:39:01.295Z,8.00
2023-03-24T01:41:32.904Z,7.38
2023-03-24T01:46:33.551Z,12.02
2023-03-24T01:49:04.406Z,16.65
2023-03-24T01:51:36.379Z,9.32
2023-03-24T01:54:12.304Z,11.70
2023-03-24T01:56:50.544Z,14.07
2023-03-24T01:59:26.361Z,9.65
2023-03-24T02:02:02.918Z,12.45
2023-03-24T02:04:34.770Z,10.60
2023-03-24T02:07:09.283Z,12.75
2023-03-24T02:09:37.529Z,8.60
2023-03-24T02:12:06.303Z,11.38
2023-03-24T02:14:36.137Z,10.05
2023-03-24T02:17:24.163Z,10.65
2023-03-24T02:20:27.909Z,14.05
2023-03-24T02:23:26.463Z,15.38
2023-03-24T02:26:20.794Z,11.10
2023-03-24T02:28:57.753Z,10.65
2023-03-24T02:32:04.138Z,9.50
2023-03-24T02:34:58.265Z,16.10
2023-03-24T02:37:44.025Z,13.18
2023-03-24T02:40:25.613Z,8.07
2023-03-24T02:45:38.454Z,11.02
2023-03-24T02:48:23.476Z,11.95
2023-03-24T02:50:57.527Z,12.32
2023-03-24T02:53:33.398Z,11.43
2023-03-24T02:56:12.524Z,9.35
2023-03-24T02:58:47.673Z,10.40
2023-03-24T03:01:18.843Z,12.73
2023-03-24T03:03:51.839Z,13.50
2023-03-24T03:06:25.145Z,15.55
2023-03-24T03:08:56.583Z,7.47
2023-03-24T03:11:26.581Z,8.95
2023-03-24T03:14:00.679Z,9.95
2023-03-24T03:16:38.680Z,9.65
2023-03-24T03:19:12.220Z,14.68
2023-03-24T03:21:44.035Z,8.38
2023-03-24T03:24:16.643Z,10.68
2023-03-24T03:26:49.516Z,11.65
2023-03-24T03:29:22.318Z,15.52
2023-03-24T03:31:59.253Z,11.88
2023-03-24T03:34:39.038Z,14.48
2023-03-24T03:37:12.371Z,10.75
2023-03-24T03:39:46.647Z,16.17
2023-03-24T03:42:16.637Z,13.05
2023-03-24T03:44:45.026Z,11.07
2023-03-24T03:47:13.285Z,9.52
2023-03-24T03:49:41.468Z,8.45
2023-03-24T03:52:09.885Z,15.60
2023-03-24T03:54:40.111Z,8.15
2023-03-24T03:57:08.720Z,12.82
2023-03-24T03:59:39.966Z,15.05
2023-03-24T04:02:24.444Z,9.98
2023-03-24T04:05:22.259Z,20.15
2023-03-24T04:08:16.614Z,21.27
2023-03-24T04:11:12.881Z,5.90
2023-03-24T04:13:51.073Z,10.38
2023-03-24T04:16:28.505Z,12.45
2023-03-24T04:19:11.366Z,15.13
2023-03-24T04:21:58.576Z,13.70
2023-03-24T04:24:40.399Z,16.80
2023-03-24T04:27:14.799Z,11.25
2023-03-24T04:29:53.195Z,14.63
2023-03-24T04:32:32.610Z,15.68
2023-03-24T04:35:05.796Z,15.93
2023-03-24T04:37:38.254Z,15.82
2023-03-24T04:40:10.400Z,10.18
2023-03-24T04:42:42.458Z,13.98
2023-03-24T04:45:12.399Z,15.63
2023-03-24T04:47:47.534Z,21.27
2023-03-24T04:50:30.467Z,16.17
2023-03-24T04:52:59.261Z,10.10
2023-03-24T04:56:00.082Z,18.60
2023-03-24T04:58:28.493Z,16.30
2023-03-24T05:00:58.839Z,15.82
2023-03-24T05:03:28.697Z,14.55
2023-03-24T05:05:56.966Z,18.42
2023-03-24T05:08:25.345Z,14.57
2023-03-24T05:10:53.501Z,18.60
2023-03-24T05:13:21.675Z,21.85
2023-03-24T05:15:50.087Z,11.80
2023-03-24T05:18:18.232Z,12.27
2023-03-24T05:20:47.863Z,24.65
2023-03-24T05:23:16.277Z,12.63
2023-03-24T05:25:44.574Z,11.57
2023-03-24T05:28:12.865Z,16.98
2023-03-24T05:30:41.145Z,21.80
2023-03-24T05:33:09.394Z,11.73
2023-03-24T05:35:37.651Z,17.30
2023-03-24T05:38:07.355Z,17.60
2023-03-24T05:40:35.492Z,18.52
2023-03-24T05:43:03.709Z,13.98
2023-03-24T05:45:31.972Z,12.48
2023-03-24T05:48:00.105Z,21.73
2023-03-24T05:50:28.397Z,16.15
2023-03-24T05:52:56.788Z,15.93
2023-03-24T05:55:26.390Z,11.30
2023-03-24T05:57:55.679Z,22.65
2023-03-24T06:00:24.765Z,12.75
2023-03-24T06:02:53.005Z,15.07
2023-03-24T06:05:21.492Z,21.20
2023-03-24T06:07:49.848Z,15.65
2023-03-24T06:10:18.617Z,16.65
2023-03-24T06:12:48.302Z,14.30
2023-03-24T06:15:17.701Z,11.73
2023-03-24T06:17:47.939Z,14.48
2023-03-24T06:20:18.425Z,21.35
2023-03-24T06:22:47.913Z,19.55
2023-03-24T06:25:18.033Z,13.50
2023-03-24T06:27:47.781Z,16.35
2023-03-24T06:30:17.902Z,29.23
2023-03-24T06:32:47.533Z,19.13
2023-03-24T06:35:17.152Z,14.05
2023-03-24T06:37:45.608Z,15.18
2023-03-24T06:40:15.367Z,12.15
2023-03-24T06:42:44.290Z,11.65
2023-03-24T06:45:14.058Z,19.95
2023-03-24T06:47:42.433Z,11.50
2023-03-24T06:50:11.778Z,21.20
2023-03-24T06:52:39.893Z,22.80
2023-03-24T06:55:09.558Z,16.15
2023-03-24T06:57:37.806Z,15.50
2023-03-24T07:00:08.876Z,13.18
2023-03-24T07:02:38.883Z,17.83
2023-03-24T07:05:09.014Z,21.27
2023-03-24T07:08:23.645Z,21.10
2023-03-24T07:10:25.782Z,18.25
2023-03-24T07:12:53.924Z,21.25
2023-03-24T07:15:22.177Z,20.02
2023-03-24T07:17:51.855Z,15.43
2023-03-24T07:20:20.840Z,13.95
2023-03-24T07:22:49.040Z,14.23
2023-03-24T07:25:20.495Z,26.63
2023-03-24T07:27:48.714Z,15.02
2023-03-24T07:30:19.170Z,25.25
2023-03-24T07:32:49.381Z,13.73
2023-03-24T07:35:19.435Z,22.13
2023-03-24T07:37:47.624Z,14.02
2023-03-24T07:40:16.310Z,13.50
2023-03-24T07:42:45.003Z,14.20
2023-03-24T07:45:14.128Z,12.95
2023-03-24T07:47:45.774Z,13.48
2023-03-24T07:50:15.669Z,16.63
2023-03-24T07:52:51.130Z,15.38
2023-03-24T07:55:19.479Z,20.40
2023-03-24T07:57:48.903Z,19.60
2023-03-24T08:00:23.116Z,14.90
2023-03-24T08:02:53.695Z,18.58
2023-03-24T08:05:25.076Z,15.32
2023-03-24T08:07:55.888Z,16.08
2023-03-24T08:10:26.323Z,14.32
2023-03-24T08:12:54.540Z,10.77
2023-03-24T08:15:22.687Z,15.88
2023-03-24T08:17:51.921Z,14.95
2023-03-24T08:20:21.450Z,9.15
2023-03-24T08:22:50.861Z,17.63
2023-03-24T08:25:23.238Z,16.38
2023-03-24T08:27:51.933Z,9.07
2023-03-24T08:30:22.199Z,12.60
2023-03-24T08:32:52.683Z,16.80
2023-03-24T08:35:23.663Z,13.32
2023-03-24T08:37:52.901Z,14.23
2023-03-24T08:40:25.547Z,12.98
2023-03-24T08:42:55.957Z,17.02
2023-03-24T08:45:27.615Z,15.63
2023-03-24T08:47:56.941Z,14.02
2023-03-24T08:50:28.467Z,22.83
2023-03-24T08:52:57.821Z,18.10
2023-03-24T08:55:28.692Z,17.23
2023-03-24T08:57:57.469Z,20.10
2023-03-24T09:00:26.180Z,20.35
2023-03-24T09:02:55.961Z,17.17
2023-03-24T09:05:40.789Z,11.77
2023-03-24T09:08:12.931Z,15.75
2023-03-24T09:10:43.174Z,14.20
2023-03-24T09:13:11.930Z,13.88
2023-03-24T09:15:40.276Z,19.17
2023-03-24T09:18:08.735Z,12.23
2023-03-24T09:20:37.344Z,30.48
2023-03-24T09:23:05.740Z,24.63
2023-03-24T09:25:33.934Z,9.32
2023-03-24T09:28:03.607Z,14.93
2023-03-24T09:30:46.738Z,14.13
2023-03-24T09:33:15.513Z,17.00
2023-03-24T09:35:43.824Z,12.63
2023-03-24T09:38:12.467Z,10.10
2023-03-24T09:40:43.745Z,10.38
2023-03-24T09:43:24.914Z,13.57
2023-03-24T09:45:55.933Z,27.98
2023-03-24T09:48:32.914Z,21.70
2023-03-24T09:51:05.398Z,15.55
2023-03-24T09:53:40.594Z,10.35
2023-03-24T09:56:14.792Z,9.48
2023-03-24T09:58:49.085Z,10.57
2023-03-24T10:01:19.064Z,18.85
2023-03-24T10:03:48.024Z,17.45
2023-03-24T10:06:23.313Z,9.98
2023-03-24T10:08:59.963Z,9.63
2023-03-24T10:11:35.375Z,9.70
2023-03-24T10:14:19.007Z,13.10
2023-03-24T10:16:55.596Z,7.20
2023-03-24T10:19:36.949Z,11.77
2023-03-24T10:22:13.143Z,9.52
2023-03-24T10:24:50.765Z,8.82
2023-03-24T10:27:26.955Z,3.67
2023-03-24T10:30:03.063Z,6.53
2023-03-24T10:32:36.388Z,6.47
2023-03-24T10:35:10.104Z,11.38
2023-03-24T10:37:38.919Z,8.23
2023-03-24T10:40:18.057Z,8.82
2023-03-24T10:42:48.754Z,7.95
2023-03-24T10:45:30.105Z,8.97
2023-03-24T10:48:01.237Z,7.18
2023-03-24T10:50:32.027Z,8.15
2023-03-24T10:53:00.135Z,6.82
2023-03-24T10:55:32.633Z,10.55
2023-03-24T10:58:02.144Z,9.82
2023-03-24T11:00:33.574Z,9.80
2023-03-24T11:03:05.480Z,10.48
2023-03-24T11:05:36.479Z,8.43
2023-03-24T11:08:28.672Z,9.10
2023-03-24T11:10:57.403Z,7.88
2023-03-24T11:13:31.446Z,7.57
2023-03-24T11:16:10.858Z,8.38
2023-03-24T11:18:39.327Z,7.40
2023-03-24T11:21:08.333Z,4.60
2023-03-24T11:23:40.265Z,7.03
2023-03-24T11:26:13.418Z,9.18
2023-03-24T11:28:44.613Z,9.85
2023-03-24T11:31:24.673Z,5.55
2023-03-24T11:33:58.668Z,5.32
2023-03-24T11:36:45.380Z,5.43
2023-03-24T11:39:19.322Z,4.38
2023-03-24T11:42:02.251Z,6.15
2023-03-24T11:44:33.598Z,7.20
2023-03-24T11:47:07.584Z,6.60
2023-03-24T11:49:41.423Z,2.67
2023-03-24T11:52:21.982Z,4.30
2023-03-24T11:54:50.273Z,6.68
2023-03-24T11:57:29.550Z,8.75
2023-03-24T12:00:01.982Z,10.70
2023-03-24T12:02:49.361Z,9.23
2023-03-24T12:05:31.570Z,9.10
2023-03-24T12:08:24.371Z,9.77
2023-03-24T12:11:02.162Z,6.45
2023-03-24T12:13:36.658Z,5.20
2023-03-24T12:16:26.517Z,5.32
2023-03-24T12:19:15.081Z,4.72
2023-03-24T12:21:56.114Z,5.10
2023-03-24T12:24:32.975Z,8.88
2023-03-24T12:27:02.326Z,5.55
2023-03-24T12:29:48.938Z,4.22
2023-03-24T12:32:38.155Z,5.20
2023-03-24T12:35:41.412Z,3.53
2023-03-24T12:38:21.234Z,3.53
2023-03-24T12:41:06.948Z,5.93
2023-03-24T12:43:48.756Z,9.48
2023-03-24T12:46:46.549Z,3.67
2023-03-24T12:49:36.772Z,5.22
2023-03-24T12:52:20.122Z,1.63
2023-03-24T12:54:56.583Z,3.00
2023-03-24T12:57:28.508Z,6.78
2023-03-24T13:00:08.495Z,4.50
2023-03-24T13:02:41.108Z,4.03
2023-03-24T13:05:16.952Z,4.00
2023-03-24T13:07:47.598Z,1.75
2023-03-24T13:10:21.866Z,5.68
2023-03-24T13:12:56.586Z,3.58
2023-03-24T13:15:30.091Z,6.25
2023-03-24T13:18:18.757Z,5.93
2023-03-24T13:20:50.333Z,4.35
2023-03-24T13:23:35.889Z,6.15
2023-03-24T13:26:11.891Z,4.82
2023-03-24T13:28:48.352Z,4.70
2023-03-24T13:31:18.795Z,3.83
2023-03-24T13:33:47.402Z,3.63
2023-03-24T13:36:33.113Z,3.33
2023-03-24T13:39:06.832Z,4.57
2023-03-24T13:41:39.842Z,4.55
2023-03-24T13:44:10.822Z,4.28
2023-03-24T13:46:42.255Z,6.28
2023-03-24T13:49:15.600Z,2.30
2023-03-24T13:51:46.709Z,3.78
2023-03-24T13:54:18.477Z,2.58
2023-03-24T13:56:54.380Z,4.05
2023-03-24T13:59:28.361Z,5.40
2023-03-24T14:02:22.534Z,6.38
2023-03-24T14:05:03.099Z,3.08
2023-03-24T14:07:34.336Z,8.88
2023-03-24T14:10:13.002Z,5.40
2023-03-24T14:12:54.500Z,9.35
2023-03-24T14:15:27.386Z,9.50
2023-03-24T14:17:57.816Z,5.63
2023-03-24T14:20:30.489Z,3.10
2023-03-24T14:22:58.825Z,5.05
2023-03-24T14:25:30.792Z,8.40
2023-03-24T14:28:21.251Z,2.05
2023-03-24T14:31:15.591Z,3.75
2023-03-24T14:34:02.260Z,5.88
2023-03-24T14:36:32.939Z,6.07
2023-03-24T14:39:13.786Z,6.10
2023-03-24T14:41:44.472Z,3.17
2023-03-24T14:44:14.382Z,1.83
2023-03-24T14:46:44.602Z,5.90
2023-03-24T14:49:25.546Z,5.63
2023-03-24T14:52:01.818Z,2.20
2023-03-24T14:54:40.028Z,4.68
2023-03-24T14:57:11.485Z,4.10
2023-03-24T14:59:49.896Z,3.22
2023-03-24T15:02:29.031Z,5.82
2023-03-24T15:05:26.515Z,1.58
2023-03-24T15:08:10.417Z,4.03
2023-03-24T15:10:43.441Z,6.45
2023-03-24T15:13:37.088Z,5.38
2023-03-24T15:16:18.039Z,3.33
2023-03-24T15:18:59.973Z,4.60
2023-03-24T15:21:34.185Z,2.97
2023-03-24T15:24:03.913Z,3.13
2023-03-24T15:26:33.466Z,5.00
2023-03-24T15:29:04.110Z,4.45
2023-03-24T15:31:34.629Z,5.73
2023-03-24T15:34:07.977Z,3.95
2023-03-24T15:36:45.780Z,3.65
2023-03-24T15:39:22.522Z,1.65
2023-03-24T15:41:53.339Z,1.02
2023-03-24T15:44:25.487Z,4.90
2023-03-24T15:46:57.611Z,2.75
2023-03-24T15:49:28.374Z,1.33
2023-03-24T15:52:00.679Z,2.43
2023-03-24T15:54:32.228Z,4.85
2023-03-24T15:59:36.841Z,1.75
2023-03-24T16:02:17.556Z,3.95
2023-03-24T16:04:54.378Z,1.98
2023-03-24T16:07:33.460Z,4.72
2023-03-24T16:10:06.198Z,2.67
2023-03-24T16:12:36.145Z,0.70
2023-03-24T16:15:05.859Z,3.42
2023-03-24T16:17:35.545Z,3.42
2023-03-24T16:20:09.032Z,3.90
2023-03-24T16:22:37.202Z,3.95
2023-03-24T16:25:06.392Z,3.95
2023-03-24T16:27:34.561Z,5.05
2023-03-24T16:30:02.940Z,5.38
2023-03-24T16:32:31.093Z,3.50
2023-03-24T16:35:00.684Z,6.13
2023-03-24T16:37:28.854Z,6.95
2023-03-24T16:39:57.046Z,0.70
2023-03-24T16:42:25.130Z,9.15
2023-03-24T16:44:53.318Z,5.07
2023-03-24T16:47:22.624Z,1.75
2023-03-24T16:49:50.771Z,1.55
2023-03-24T16:52:20.447Z,0.55
2023-03-24T16:54:50.681Z,4.03
2023-03-24T16:57:18.759Z,3.80
2023-03-24T16:59:46.832Z,0.88
2023-03-24T17:02:14.986Z,3.17
2023-03-24T17:04:44.654Z,3.40
2023-03-24T17:07:12.826Z,3.28
2023-03-24T17:09:42.505Z,1.40
2023-03-24T17:12:10.886Z,1.13
2023-03-24T17:14:39.148Z,2.95
2023-03-24T17:17:11.699Z,4.50
2023-03-24T17:19:42.098Z,3.53
2023-03-24T17:22:11.755Z,3.72
2023-03-24T17:24:42.412Z,4.07
2023-03-24T17:27:14.100Z,2.47
2023-03-24T17:29:42.236Z,2.80
2023-03-24T17:32:10.726Z,4.28
2023-03-24T17:34:39.061Z,4.00
2023-03-24T17:37:07.389Z,4.18
2023-03-24T17:39:35.752Z,3.90
2023-03-24T17:42:05.772Z,1.95
2023-03-24T17:44:34.933Z,2.47
2023-03-24T17:47:03.263Z,3.08
2023-03-24T17:49:31.725Z,1.75
2023-03-24T17:51:59.892Z,2.70
2023-03-24T17:54:28.257Z,5.93
2023-03-24T17:56:56.546Z,1.85
2023-03-24T17:59:26.571Z,3.53
2023-03-24T18:01:54.806Z,2.78
2023-03-24T18:04:23.955Z,4.03
2023-03-24T18:06:52.141Z,3.78
2023-03-24T18:09:20.333Z,1.00
2023-03-24T18:11:48.703Z,3.40
2023-03-24T18:14:18.781Z,3.05
2023-03-24T18:16:48.306Z,2.65
2023-03-24T18:19:16.511Z,5.20
2023-03-24T18:21:45.511Z,1.95
2023-03-24T18:24:13.852Z,3.88
2023-03-24T18:26:42.181Z,2.72
2023-03-24T18:29:10.890Z,5.20
2023-03-24T18:31:39.076Z,1.92
2023-03-24T18:34:08.738Z,3.35
2023-03-24T18:36:36.882Z,5.60
2023-03-24T18:39:07.773Z,5.53
2023-03-24T18:41:37.284Z,2.88
2023-03-24T18:44:07.407Z,3.70
2023-03-24T18:46:35.639Z,5.38
2023-03-24T18:49:04.078Z,4.60
2023-03-24T18:51:35.752Z,4.10
2023-03-24T18:54:04.182Z,5.60
2023-03-24T18:56:32.395Z,3.17
2023-03-24T18:59:00.854Z,3.80
2023-03-24T19:01:30.394Z,4.05
2023-03-24T19:03:58.691Z,4.55
2023-03-24T19:06:31.320Z,4.43
2023-03-24T19:09:01.189Z,10.68
2023-03-24T19:11:29.836Z,5.38
2023-03-24T19:13:59.449Z,4.38
2023-03-24T19:16:27.665Z,4.45
2023-03-24T19:18:57.904Z,5.40
2023-03-24T19:21:27.651Z,6.78
2023-03-24T19:23:57.127Z,6.15
2023-03-24T19:26:26.920Z,1.23
2023-03-24T19:28:55.609Z,3.55
2023-03-24T19:31:23.742Z,4.15
2023-03-24T19:33:54.354Z,1.70
2023-03-24T19:36:22.571Z,3.50
2023-03-24T19:38:51.058Z,3.70
2023-03-24T19:41:19.338Z,6.90
2023-03-24T19:43:48.923Z,9.35
2023-03-24T19:46:21.068Z,4.25
2023-03-24T19:48:49.302Z,8.65
2023-03-24T19:51:18.596Z,7.13
2023-03-24T19:53:46.789Z,8.40
2023-03-24T19:56:17.496Z,7.38
2023-03-24T19:58:45.780Z,7.25
2023-03-24T20:01:15.688Z,7.82
2023-03-24T20:03:44.004Z,6.95
2023-03-24T20:06:12.341Z,7.22
2023-03-24T20:08:40.973Z,10.60
2023-03-24T20:11:09.583Z,14.25
2023-03-24T20:13:37.871Z,16.98
2023-03-24T20:16:06.661Z,9.43
2023-03-24T20:18:36.820Z,6.30
2023-03-24T20:21:06.463Z,7.00
2023-03-24T20:23:34.635Z,7.32
2023-03-24T20:26:03.238Z,7.28
2023-03-24T20:28:31.661Z,9.02
2023-03-24T20:31:01.957Z,5.45
2023-03-24T20:33:30.341Z,7.10
2023-03-24T20:36:00.426Z,13.40
2023-03-24T20:38:28.650Z,8.05
2023-03-24T20:41:00.794Z,4.05
2023-03-24T20:43:31.050Z,9.40
2023-03-24T20:45:59.158Z,7.82
2023-03-24T20:48:27.785Z,6.28
2023-03-24T20:50:56.276Z,10.50
2023-03-24T20:53:27.377Z,6.13
2023-03-24T20:55:59.957Z,5.43
2023-03-24T20:58:28.693Z,7.28
2023-03-24T21:00:57.299Z,8.90
2023-03-24T21:03:26.436Z,7.72
2023-03-24T21:05:54.963Z,8.32
2023-03-24T21:08:23.123Z,6.70
2023-03-24T21:10:56.458Z,5.72
2023-03-24T21:13:24.708Z,4.53
2023-03-24T21:15:53.125Z,6.55
2023-03-24T21:18:21.320Z,8.25
2023-03-24T21:20:55.319Z,8.07
2023-03-24T21:23:24.002Z,11.77
2023-03-24T21:25:53.644Z,3.95
2023-03-24T21:28:21.749Z,8.70
2023-03-24T21:30:49.888Z,6.75
2023-03-24T21:33:17.982Z,5.18
2023-03-24T21:35:46.637Z,1.73
2023-03-24T21:38:16.065Z,6.97
2023-03-24T21:40:44.584Z,5.07
2023-03-24T21:43:15.001Z,3.70
2023-03-24T21:45:46.131Z,4.78
2023-03-24T21:48:16.306Z,6.72
2023-03-24T21:50:45.816Z,5.32
2023-03-24T21:53:15.973Z,3.97
2023-03-24T21:55:51.407Z,3.80
2023-03-24T21:58:21.698Z,3.60
2023-03-24T22:00:52.319Z,6.22
2023-03-24T22:03:21.778Z,6.73
2023-03-24T22:05:50.233Z,2.10
2023-03-24T22:08:22.664Z,3.10
2023-03-24T22:10:54.379Z,6.43
2023-03-24T22:13:23.997Z,3.45
2023-03-24T22:15:56.310Z,4.38
2023-03-24T22:18:24.927Z,7.78
2023-03-24T22:20:57.093Z,6.35
2023-03-24T22:23:25.312Z,5.53
2023-03-24T22:25:53.969Z,7.68
2023-03-24T22:28:23.598Z,3.75
2023-03-24T22:30:51.705Z,3.50
2023-03-24T22:33:19.931Z,6.90
2023-03-24T22:35:48.311Z,2.78
2023-03-24T22:38:17.413Z,5.80
2023-03-24T22:40:45.490Z,3.08
2023-03-24T22:43:13.631Z,5.57
2023-03-24T22:45:43.544Z,1.85
2023-03-24T22:48:12.859Z,6.90
2023-03-24T22:50:42.399Z,4.70
2023-03-24T22:53:10.923Z,11.43
2023-03-24T22:55:42.136Z,4.63
2023-03-24T22:58:10.894Z,10.23
2023-03-24T23:00:39.051Z,4.78
2023-03-24T23:03:09.579Z,5.40
2023-03-24T23:05:41.482Z,3.25
2023-03-24T23:08:11.681Z,6.68
2023-03-24T23:10:40.864Z,3.22
2023-03-24T23:13:10.622Z,4.82
2023-03-24T23:15:39.264Z,4.18
2023-03-24T23:18:09.062Z,6.30
2023-03-24T23:20:37.707Z,8.07
2023-03-24T23:23:07.084Z,6.20
2023-03-24T23:25:40.305Z,7.82
2023-03-24T23:28:08.477Z,6.32
2023-03-24T23:30:37.284Z,6.35
2023-03-24T23:33:05.539Z,14.13
2023-03-24T23:35:35.989Z,6.65
2023-03-24T23:38:05.532Z,5.38
2023-03-24T23:40:33.823Z,9.40
2023-03-24T23:43:03.321Z,7.95
2023-03-24T23:45:31.503Z,10.52
2023-03-24T23:47:59.916Z,7.72
2023-03-24T23:50:29.302Z,9.15
2023-03-24T23:52:59.244Z,8.90
2023-03-24T23:55:28.100Z,20.90
2023-03-24T23:57:56.707Z,6.68
